Time,TemperatureF,DewpointF,PressureIn,WindDirection,WindDirectionDegrees,WindSpeedMPH,WindSpeedGustMPH,Humidity,HourlyPrecipIn,Conditions,Clouds,dailyrainin,SoftwareType,DateUTC
2013-04-21 01:15:00,52.3,22.6,30.07,NE,41,0.0,0.0,31,0.00, ,SKC,-99.99,VWS V12.07,2013-04-20 22:15:00,
2013-04-21 01:21:00,52.2,22.5,30.07,NE,41,0.0,0.0,31,0.00, ,SKC,-99.99,VWS V12.07,2013-04-20 22:21:00,
2013-04-21 01:26:00,52.0,22.3,30.07,NE,41,0.0,0.0,31,0.00, ,SKC,-99.99,VWS V12.07,2013-04-20 22:26:00,
2013-04-21 01:31:00,52.0,22.3,30.07,NE,41,0.0,0.0,31,0.00, ,SKC,-99.99,VWS V12.07,2013-04-20 22:31:00,
2013-04-21 01:36:00,51.8,22.1,30.07,NE,41,0.0,0.0,31,0.00, ,SKC,-99.99,VWS V12.07,2013-04-20 22:36:00,
2013-04-21 01:41:00,51.8,22.1,30.07,NE,41,0.0,0.0,31,0.00, ,SKC,-99.99,VWS V12.07,2013-04-20 22:41:00,
2013-04-21 01:46:00,51.8,22.1,30.07,NE,41,0.0,0.0,31,0.00, ,SKC,-99.99,VWS V12.07,2013-04-20 22:46:00,
2013-04-21 01:51:00,51.8,22.1,30.07,NE,41,0.0,0.0,31,0.00, ,SKC,-99.99,VWS V12.07,2013-04-20 22:51:00,
2013-04-21 01:56:00,52.0,23.1,30.07,NE,41,0.0,0.0,32,0.00, ,SKC,-99.99,VWS V12.07,2013-04-20 22:56:00,
2013-04-21 02:01:00,52.0,23.1,30.07,NE,41,0.0,0.0,32,0.00, ,SKC,-99.99,VWS V12.07,2013-04-20 23:01:00,
2013-04-21 02:06:00,52.0,22.3,30.07,NE,41,0.0,0.0,31,0.00, ,SKC,-99.99,VWS V12.07,2013-04-20 23:06:00,
2013-04-21 02:11:00,51.8,22.1,30.07,NE,41,0.0,0.0,31,0.00, ,SKC,-99.99,VWS V12.07,2013-04-20 23:11:00,
2013-04-21 02:16:00,51.8,21.4,30.07,NE,41,0.0,0.0,30,0.00, ,SKC,-99.99,VWS V12.07,2013-04-20 23:16:00,
2013-04-21 02:21:00,51.8,21.4,30.07,NE,41,0.0,0.0,30,0.00, ,SKC,-99.99,VWS V12.07,2013-04-20 23:21:00,
2013-04-21 02:26:00,52.0,21.5,30.07,NE,41,0.0,0.0,30,0.00, ,SKC,-99.99,VWS V12.07,2013-04-20 23:26:00,
2013-04-21 02:31:00,52.2,21.7,30.07,NE,41,0.0,0.0,30,0.00, ,SKC,-99.99,VWS V12.07,2013-04-20 23:31:00,
2013-04-21 02:36:00,52.5,21.2,30.07,NE,41,0.0,0.0,29,0.00, ,SKC,-99.99,VWS V12.07,2013-04-20 23:36:00,
2013-04-21 02:41:00,52.5,21.2,30.04,NE,41,0.0,0.0,29,0.00, ,SKC,-99.99,VWS V12.07,2013-04-20 23:41:00,
2013-04-21 02:46:00,52.5,21.2,30.04,NE,41,0.0,0.0,29,0.00, ,SKC,-99.99,VWS V12.07,2013-04-20 23:46:00,
2013-04-21 02:51:00,52.3,21.0,30.04,NE,41,0.0,2.2,29,0.00, ,SKC,-99.99,VWS V12.07,2013-04-20 23:51:00,
2013-04-21 02:56:00,52.5,21.2,30.04,NE,41,0.0,2.2,29,0.00, ,SKC,-99.99,VWS V12.07,2013-04-20 23:56:00,
2013-04-21 14:49:00,69.6,20.0,30.04,North,8,7.2,10.1,15,0.00, ,SKC,-99.99,VWS V12.07,2013-04-21 11:49:00,
2013-04-21 14:51:00,69.4,19.8,30.04,ESE,103,5.4,10.1,15,0.00, ,SKC,-99.99,VWS V12.07,2013-04-21 11:51:00,
2013-04-21 14:52:00,69.4,19.8,30.04,ENE,65,4.0,10.1,15,0.00, ,SKC,-99.99,VWS V12.07,2013-04-21 11:52:00,
2013-04-21 14:57:00,69.3,19.7,30.01,North,357,4.5,10.5,15,0.00, ,SKC,-99.99,VWS V12.07,2013-04-21 11:57:00,
2013-04-21 15:00:00,69.4,19.8,30.01,NE,39,4.0,4.0,15,0.00, ,SKC,-99.99,VWS V12.07,2013-04-21 12:00:00,
2013-04-21 15:06:00,69.6,20.0,30.01,NE,35,3.6,6.3,15,0.00, ,SKC,-99.99,VWS V12.07,2013-04-21 12:06:00,
2013-04-21 15:11:00,69.1,19.5,30.01,ENE,59,4.9,8.3,15,0.00, ,SKC,-99.99,VWS V12.07,2013-04-21 12:11:00,
2013-04-21 15:16:00,69.3,19.7,30.01,NNE,19,6.3,8.3,15,0.00, ,SKC,-99.99,VWS V12.07,2013-04-21 12:16:00,
2013-04-21 15:21:00,69.3,19.7,30.01,East,96,3.6,5.8,15,0.00, ,SKC,-99.99,VWS V12.07,2013-04-21 12:21:00,
2013-04-21 15:26:00,69.1,19.5,30.01,NNE,30,3.1,8.1,15,0.00, ,SKC,-99.99,VWS V12.07,2013-04-21 12:26:00,
2013-04-21 15:31:00,68.7,19.2,30.01,WNW,282,2.2,8.1,15,0.00, ,SKC,-99.99,VWS V12.07,2013-04-21 12:31:00,
2013-04-21 15:36:00,69.1,19.5,30.01,NNE,14,3.6,9.2,15,0.00, ,SKC,-99.99,VWS V12.07,2013-04-21 12:36:00,
2013-04-21 15:41:00,69.3,19.7,30.01,NE,42,3.1,5.4,15,0.00, ,SKC,-99.99,VWS V12.07,2013-04-21 12:41:00,
2013-04-21 15:46:00,69.4,19.8,30.01,ENE,60,4.9,6.7,15,0.00, ,SKC,-99.99,VWS V12.07,2013-04-21 12:46:00,
2013-04-21 15:51:00,69.6,20.0,30.01,NNE,19,4.0,6.7,15,0.00, ,SKC,-99.99,VWS V12.07,2013-04-21 12:51:00,
2013-04-21 15:56:00,70.0,18.6,30.01,North,353,3.1,7.6,14,0.00, ,SKC,-99.99,VWS V12.07,2013-04-21 12:56:00,
2013-04-21 16:01:00,69.8,18.5,30.01,East,81,4.0,5.8,14,0.00, ,SKC,-99.99,VWS V12.07,2013-04-21 13:01:00,
2013-04-21 16:06:00,69.6,20.0,30.01,NE,41,2.7,6.3,15,0.00, ,SKC,-99.99,VWS V12.07,2013-04-21 13:06:00,
2013-04-21 16:11:00,69.3,19.7,30.01,NNE,25,5.8,6.3,15,0.00, ,SKC,-99.99,VWS V12.07,2013-04-21 13:11:00,
2013-04-21 16:16:00,69.1,19.5,30.01,East,92,2.7,6.3,15,0.00, ,SKC,-99.99,VWS V12.07,2013-04-21 13:16:00,
2013-04-21 16:21:00,69.1,19.5,30.01,SW,231,3.1,5.4,15,0.00, ,SKC,-99.99,VWS V12.07,2013-04-21 13:21:00,
2013-04-21 16:26:00,69.3,19.7,30.01,NNE,18,3.6,5.4,15,0.00, ,SKC,-99.99,VWS V12.07,2013-04-21 13:26:00,
2013-04-21 16:31:00,69.3,19.7,30.01,NNE,28,2.2,5.8,15,0.00, ,SKC,-99.99,VWS V12.07,2013-04-21 13:31:00,
2013-04-21 16:36:00,69.1,19.5,30.01,WSW,237,0.0,5.8,15,0.00, ,SKC,-99.99,VWS V12.07,2013-04-21 13:36:00,
2013-04-21 16:41:00,69.1,19.5,29.98,NNE,25,2.7,3.6,15,0.00, ,SKC,-99.99,VWS V12.07,2013-04-21 13:41:00,
2013-04-21 16:46:00,69.1,19.5,29.98,NE,39,4.9,8.7,15,0.00, ,SKC,-99.99,VWS V12.07,2013-04-21 13:46:00,
2013-04-21 16:51:00,69.1,19.5,29.98,SSE,165,2.2,8.7,15,0.00, ,SKC,-99.99,VWS V12.07,2013-04-21 13:51:00,
2013-04-21 16:56:00,68.9,19.4,30.01,NNE,24,0.0,8.7,15,0.00, ,SKC,-99.99,VWS V12.07,2013-04-21 13:56:00,
2013-04-21 17:01:00,68.9,19.4,30.01,ENE,74,3.6,5.4,15,0.00, ,SKC,-99.99,VWS V12.07,2013-04-21 14:01:00,
2013-04-21 17:06:00,69.1,19.5,30.01,North,0,2.7,5.8,15,0.00, ,SKC,-99.99,VWS V12.07,2013-04-21 14:06:00,
2013-04-21 17:12:00,68.9,19.4,30.01,NNE,30,2.7,5.8,15,0.00, ,SKC,-99.99,VWS V12.07,2013-04-21 14:12:00,
2013-04-21 17:17:00,68.9,19.4,30.01,NE,35,2.7,5.8,15,0.00, ,SKC,-99.99,VWS V12.07,2013-04-21 14:17:00,
2013-04-21 17:22:00,68.7,19.2,30.01,North,0,0.0,11.0,15,0.00, ,SKC,-99.99,VWS V12.07,2013-04-21 14:22:00,
2013-04-21 17:27:00,68.7,19.2,29.98,NNW,327,2.2,11.0,15,0.00, ,SKC,-99.99,VWS V12.07,2013-04-21 14:27:00,